Terminal Aerodrome Forecast
Issued by NWS

Home | Current Version | Previous Version | Graphics & Text | Print | Product List | Glossary On
Versions: 1 2 3 4 5 6 7 8 9 10 11 12 13 14 15 16
706
FTUS43 KBIS 251134
TAFMOT
TAF
KMOT 251134Z 2512/2612 18009KT P6SM BKN060
     FM251500 21013KT P6SM BKN110
     FM251700 24020G30KT P6SM BKN100
     FM260200 26010KT P6SM SCT090=

USA.gov is the U.S. government's official web portal to all federal, state and local government web resources and services.